createdAt,value
2023-10-26T00:01:53.702Z,5.88
2023-10-26T00:04:24.866Z,4.70
2023-10-26T00:06:53.409Z,4.78
2023-10-26T00:09:21.878Z,5.63
2023-10-26T00:11:51.199Z,5.05
2023-10-26T00:14:19.511Z,5.05
2023-10-26T00:16:47.902Z,4.95
2023-10-26T00:19:16.484Z,4.68
2023-10-26T00:21:46.467Z,5.13
2023-10-26T00:24:15.416Z,4.40
2023-10-26T00:26:43.747Z,4.38
2023-10-26T00:29:12.449Z,4.72
2023-10-26T00:31:40.572Z,4.65
2023-10-26T00:34:09.008Z,4.75
2023-10-26T00:36:37.200Z,4.32
2023-10-26T00:39:07.486Z,4.80
2023-10-26T00:41:35.697Z,4.68
2023-10-26T00:44:04.043Z,4.20
2023-10-26T00:46:33.101Z,5.07
2023-10-26T00:49:01.852Z,4.60
2023-10-26T00:51:31.392Z,4.60
2023-10-26T00:54:00.362Z,4.72
2023-10-26T00:56:30.499Z,4.43
2023-10-26T00:58:59.762Z,4.28
2023-10-26T01:01:28.905Z,3.97
2023-10-26T01:03:58.594Z,5.05
2023-10-26T01:06:27.389Z,4.78
2023-10-26T01:08:55.734Z,4.53
2023-10-26T01:11:24.514Z,4.72
2023-10-26T01:13:54.618Z,4.53
2023-10-26T01:16:23.990Z,5.00
2023-10-26T01:18:52.610Z,4.45
2023-10-26T01:21:21.541Z,4.90
2023-10-26T01:23:51.621Z,4.75
2023-10-26T01:26:20.125Z,3.70
2023-10-26T01:28:48.642Z,4.63
2023-10-26T01:31:17.814Z,4.82
2023-10-26T01:33:46.534Z,4.88
2023-10-26T01:36:15.614Z,4.82
2023-10-26T01:38:44.402Z,4.53
2023-10-26T01:41:14.230Z,4.90
2023-10-26T01:43:42.576Z,4.93
2023-10-26T01:46:10.974Z,4.80
2023-10-26T01:48:40.118Z,5.20
2023-10-26T01:51:08.402Z,5.75
2023-10-26T01:53:36.826Z,4.53
2023-10-26T01:56:06.540Z,4.78
2023-10-26T01:58:36.425Z,4.55
2023-10-26T02:01:07.132Z,4.40
2023-10-26T02:03:35.560Z,5.03
2023-10-26T02:06:05.232Z,4.30
2023-10-26T02:08:34.393Z,4.50
2023-10-26T02:11:02.836Z,5.03
2023-10-26T02:13:31.555Z,5.43
2023-10-26T02:16:02.881Z,5.22
2023-10-26T02:18:32.526Z,5.35
2023-10-26T02:21:01.748Z,5.22
2023-10-26T02:23:31.052Z,5.22
2023-10-26T02:25:59.417Z,4.78
2023-10-26T02:28:28.246Z,5.20
2023-10-26T02:30:56.754Z,4.70
2023-10-26T02:33:26.596Z,4.82
2023-10-26T02:35:55.532Z,4.30
2023-10-26T02:38:24.060Z,5.35
2023-10-26T02:40:54.509Z,5.22
2023-10-26T02:43:22.827Z,4.72
2023-10-26T02:46:01.593Z,5.43
2023-10-26T02:48:31.573Z,5.55
2023-10-26T02:51:00.112Z,5.88
2023-10-26T02:53:28.477Z,5.97
2023-10-26T02:55:56.874Z,6.13
2023-10-26T02:58:28.088Z,5.78
2023-10-26T03:00:56.688Z,5.53
2023-10-26T03:03:25.426Z,5.53
2023-10-26T03:05:55.229Z,5.35
2023-10-26T03:08:24.201Z,5.40
2023-10-26T03:10:53.484Z,5.28
2023-10-26T03:13:21.940Z,5.00
2023-10-26T03:15:50.710Z,5.43
2023-10-26T03:18:19.208Z,5.43
2023-10-26T03:20:47.789Z,5.90
2023-10-26T03:23:17.527Z,6.38
2023-10-26T03:25:46.012Z,7.15
2023-10-26T03:28:14.142Z,6.30
2023-10-26T03:30:42.678Z,6.32
2023-10-26T03:33:11.085Z,6.40
2023-10-26T03:35:39.596Z,5.60
2023-10-26T03:38:10.609Z,5.53
2023-10-26T03:40:40.596Z,5.70
2023-10-26T03:43:09.557Z,5.20
2023-10-26T03:45:37.700Z,5.70
2023-10-26T03:48:06.996Z,5.43
2023-10-26T03:50:35.534Z,5.07
2023-10-26T03:53:04.420Z,4.82
2023-10-26T03:55:32.827Z,4.55
2023-10-26T03:58:02.491Z,5.35
2023-10-26T04:00:31.130Z,5.00
2023-10-26T04:02:59.541Z,5.10
2023-10-26T04:05:27.985Z,5.10
2023-10-26T04:07:57.685Z,5.30
2023-10-26T04:10:26.228Z,4.95
2023-10-26T04:12:57.017Z,4.82
2023-10-26T04:15:26.826Z,4.93
2023-10-26T04:17:55.641Z,5.85
2023-10-26T04:20:24.260Z,5.25
2023-10-26T04:22:52.546Z,5.18
2023-10-26T04:25:22.612Z,5.38
2023-10-26T04:27:51.379Z,5.85
2023-10-26T04:30:20.210Z,5.82
2023-10-26T04:32:53.632Z,5.70
2023-10-26T04:35:22.869Z,5.82
2023-10-26T04:37:51.556Z,5.95
2023-10-26T04:40:19.894Z,5.90
2023-10-26T04:42:49.776Z,6.70
2023-10-26T04:45:18.792Z,7.00
2023-10-26T04:47:48.030Z,7.97
2023-10-26T04:50:18.701Z,8.13
2023-10-26T04:52:49.142Z,7.43
2023-10-26T04:55:18.120Z,7.05
2023-10-26T04:57:46.508Z,6.68
2023-10-26T05:00:16.456Z,6.47
2023-10-26T05:02:44.924Z,5.75
2023-10-26T05:05:14.026Z,7.75
2023-10-26T05:07:43.933Z,8.50
2023-10-26T05:10:13.085Z,7.93
2023-10-26T05:12:43.355Z,6.55
2023-10-26T05:15:12.495Z,6.13
2023-10-26T05:17:41.299Z,6.28
2023-10-26T05:20:11.579Z,5.53
2023-10-26T05:22:41.181Z,6.05
2023-10-26T05:25:15.422Z,6.63
2023-10-26T05:27:44.740Z,6.35
2023-10-26T05:30:13.865Z,6.32
2023-10-26T05:32:43.032Z,5.50
2023-10-26T05:35:11.799Z,5.57
2023-10-26T05:37:40.590Z,5.82
2023-10-26T05:40:14.826Z,6.05
2023-10-26T05:42:43.774Z,6.20
2023-10-26T05:45:12.655Z,6.05
2023-10-26T05:47:41.707Z,6.55
2023-10-26T05:50:12.055Z,5.70
2023-10-26T05:52:45.747Z,6.90
2023-10-26T05:55:16.557Z,7.10
2023-10-26T05:57:45.612Z,6.47
2023-10-26T06:00:15.400Z,6.20
2023-10-26T06:02:44.002Z,6.32
2023-10-26T06:05:13.472Z,6.88
2023-10-26T06:07:42.588Z,6.68
2023-10-26T06:10:12.817Z,6.40
2023-10-26T06:12:46.326Z,6.35
2023-10-26T06:15:15.316Z,6.28
2023-10-26T06:17:43.916Z,6.15
2023-10-26T06:20:14.278Z,6.72
2023-10-26T06:22:47.023Z,6.13
2023-10-26T06:25:16.330Z,6.55
2023-10-26T06:27:47.034Z,6.65
2023-10-26T06:30:20.583Z,6.53
2023-10-26T06:32:49.984Z,6.80
2023-10-26T06:35:19.052Z,7.00
2023-10-26T06:37:49.461Z,6.70
2023-10-26T06:40:18.678Z,6.25
2023-10-26T06:42:49.343Z,6.53
2023-10-26T06:45:18.432Z,5.97
2023-10-26T06:47:47.644Z,6.63
2023-10-26T06:50:16.435Z,6.13
2023-10-26T06:52:45.743Z,6.50
2023-10-26T06:55:30.085Z,6.25
2023-10-26T06:58:04.706Z,6.20
2023-10-26T07:00:34.500Z,6.43
2023-10-26T07:03:03.011Z,6.68
2023-10-26T07:05:32.328Z,6.38
2023-10-26T07:08:01.101Z,6.80
2023-10-26T07:10:29.874Z,6.00
2023-10-26T07:12:58.676Z,6.72
2023-10-26T07:15:28.991Z,7.05
2023-10-26T07:17:57.831Z,6.10
2023-10-26T07:20:26.702Z,6.05
2023-10-26T07:22:55.687Z,5.88
2023-10-26T07:25:24.260Z,5.72
2023-10-26T07:27:55.654Z,6.13
2023-10-26T07:30:24.886Z,6.05
2023-10-26T07:32:55.169Z,6.47
2023-10-26T07:35:25.961Z,5.68
2023-10-26T07:38:09.165Z,5.95
2023-10-26T07:40:50.251Z,5.57
2023-10-26T07:43:19.210Z,6.00
2023-10-26T07:45:51.985Z,5.78
2023-10-26T07:48:23.794Z,5.00
2023-10-26T07:50:53.616Z,5.60
2023-10-26T07:53:22.428Z,5.65
2023-10-26T07:55:51.817Z,5.45
2023-10-26T07:58:21.672Z,5.03
2023-10-26T08:00:50.681Z,4.70
2023-10-26T08:03:19.637Z,4.90
2023-10-26T08:05:58.971Z,4.82
2023-10-26T08:08:27.796Z,5.15
2023-10-26T08:10:56.564Z,5.47
2023-10-26T08:13:24.856Z,4.78
2023-10-26T08:16:39.372Z,4.80
2023-10-26T08:18:44.160Z,4.55
2023-10-26T08:21:14.705Z,4.53
2023-10-26T08:23:43.551Z,4.53
2023-10-26T08:26:12.769Z,4.80
2023-10-26T08:28:43.945Z,4.55
2023-10-26T08:31:13.460Z,4.93
2023-10-26T08:33:42.123Z,4.95
2023-10-26T08:36:10.907Z,4.68
2023-10-26T08:38:41.396Z,4.35
2023-10-26T08:41:15.265Z,4.85
2023-10-26T08:43:44.975Z,4.47
2023-10-26T08:46:19.809Z,4.10
2023-10-26T08:48:50.905Z,4.28
2023-10-26T08:51:19.463Z,4.07
2023-10-26T08:53:49.931Z,4.07
2023-10-26T08:56:22.498Z,4.53
2023-10-26T08:58:53.197Z,4.38
2023-10-26T09:01:22.088Z,4.50
2023-10-26T09:03:50.856Z,4.07
2023-10-26T09:06:19.849Z,4.05
2023-10-26T09:09:02.879Z,4.25
2023-10-26T09:11:32.039Z,4.15
2023-10-26T09:14:15.070Z,4.13
2023-10-26T09:16:45.136Z,3.70
2023-10-26T09:19:14.397Z,3.63
2023-10-26T09:21:51.086Z,3.85
2023-10-26T09:24:22.633Z,4.00
2023-10-26T09:26:51.720Z,4.10
2023-10-26T09:29:20.859Z,3.75
2023-10-26T09:31:57.989Z,3.65
2023-10-26T09:34:28.585Z,3.92
2023-10-26T09:37:01.880Z,3.92
2023-10-26T09:39:35.839Z,3.67
2023-10-26T09:42:08.150Z,3.50
2023-10-26T09:44:38.544Z,3.45
2023-10-26T09:47:08.092Z,2.75
2023-10-26T09:49:36.797Z,3.20
2023-10-26T09:52:06.555Z,2.95
2023-10-26T09:54:39.032Z,2.80
2023-10-26T09:57:18.191Z,2.95
2023-10-26T09:59:49.535Z,2.95
2023-10-26T10:02:22.471Z,3.35
2023-10-26T10:04:50.987Z,2.97
2023-10-26T10:07:20.897Z,2.85
2023-10-26T10:10:10.555Z,2.60
2023-10-26T10:12:40.686Z,2.83
2023-10-26T10:18:13.232Z,2.65
2023-10-26T10:20:43.113Z,2.53
2023-10-26T10:23:30.331Z,2.67
2023-10-26T10:26:23.502Z,2.58
2023-10-26T10:28:53.812Z,2.13
2023-10-26T10:31:42.363Z,2.25
2023-10-26T10:34:12.446Z,2.67
2023-10-26T10:37:13.618Z,2.45
2023-10-26T10:40:11.817Z,2.30
2023-10-26T10:42:47.391Z,2.20
2023-10-26T10:45:16.719Z,2.20
2023-10-26T10:47:48.395Z,2.97
2023-10-26T10:50:18.927Z,1.92
2023-10-26T10:52:49.591Z,2.47
2023-10-26T10:55:22.642Z,2.03
2023-10-26T10:58:00.097Z,2.40
2023-10-26T11:00:30.131Z,1.90
2023-10-26T11:03:01.414Z,2.28
2023-10-26T11:05:40.690Z,2.17
2023-10-26T11:08:11.328Z,2.05
2023-10-26T11:10:40.984Z,1.98
2023-10-26T11:13:11.006Z,1.88
2023-10-26T11:15:40.908Z,2.38
2023-10-26T11:18:10.402Z,1.95
2023-10-26T11:20:41.965Z,1.75
2023-10-26T11:23:12.992Z,2.50
2023-10-26T11:25:42.033Z,2.07
2023-10-26T11:28:12.735Z,2.00
2023-10-26T11:30:48.986Z,2.00
2023-10-26T11:33:41.099Z,1.70
2023-10-26T11:36:11.388Z,2.40
2023-10-26T11:38:49.612Z,1.70
2023-10-26T11:41:22.765Z,1.88
2023-10-26T11:43:53.693Z,2.05
2023-10-26T11:46:30.843Z,1.80
2023-10-26T11:48:59.725Z,1.75
2023-10-26T11:51:29.461Z,2.00
2023-10-26T11:54:10.971Z,2.10
2023-10-26T11:56:40.224Z,2.10
2023-10-26T11:59:12.262Z,1.92
2023-10-26T12:01:40.783Z,2.03
2023-10-26T12:04:13.722Z,2.28
2023-10-26T12:06:42.511Z,1.88
2023-10-26T12:09:12.092Z,1.92
2023-10-26T12:11:42.442Z,2.10
2023-10-26T12:14:13.906Z,2.13
2023-10-26T12:19:11.773Z,1.75
2023-10-26T12:21:40.578Z,1.77
2023-10-26T12:24:09.589Z,1.98
2023-10-26T12:26:38.056Z,2.30
2023-10-26T12:29:07.375Z,1.65
2023-10-26T12:31:37.006Z,2.08
2023-10-26T12:34:06.217Z,1.60
2023-10-26T12:36:34.669Z,1.90
2023-10-26T12:39:06.552Z,1.90
2023-10-26T12:41:38.210Z,1.48
2023-10-26T12:44:07.116Z,1.30
2023-10-26T12:46:37.449Z,1.52
2023-10-26T12:49:06.184Z,1.90
2023-10-26T12:51:37.162Z,1.75
2023-10-26T12:56:44.759Z,1.73
2023-10-26T12:59:13.683Z,1.77
2023-10-26T13:01:44.857Z,1.90
2023-10-26T13:04:14.561Z,2.17
2023-10-26T13:06:43.555Z,1.88
2023-10-26T13:09:13.853Z,1.95
2023-10-26T13:11:43.638Z,1.60
2023-10-26T13:14:12.448Z,1.88
2023-10-26T13:16:56.648Z,1.77
2023-10-26T13:19:28.829Z,1.92
2023-10-26T13:21:57.743Z,2.47
2023-10-26T13:24:26.340Z,2.50
2023-10-26T13:26:54.972Z,2.50
2023-10-26T13:29:30.281Z,2.28
2023-10-26T13:31:59.627Z,2.10
2023-10-26T13:37:00.758Z,1.75
2023-10-26T13:39:29.688Z,2.00
2023-10-26T13:41:59.024Z,1.88
2023-10-26T13:44:28.044Z,2.35
2023-10-26T13:46:57.153Z,2.20
2023-10-26T13:49:25.535Z,2.17
2023-10-26T13:51:58.257Z,2.25
2023-10-26T13:54:27.635Z,1.70
2023-10-26T13:56:56.500Z,1.80
2023-10-26T13:59:24.936Z,2.10
2023-10-26T14:01:53.599Z,2.47
2023-10-26T14:04:23.230Z,2.08
2023-10-26T14:06:52.039Z,2.40
2023-10-26T14:09:22.031Z,2.20
2023-10-26T14:11:50.805Z,2.60
2023-10-26T14:14:19.307Z,2.60
2023-10-26T14:16:53.732Z,2.50
2023-10-26T14:19:23.459Z,2.50
2023-10-26T14:22:56.909Z,2.85
2023-10-26T14:26:17.592Z,2.70
2023-10-26T14:28:49.001Z,2.80
2023-10-26T14:31:17.929Z,2.67
2023-10-26T14:33:46.855Z,2.83
2023-10-26T14:36:16.452Z,2.80
2023-10-26T14:38:44.996Z,2.65
2023-10-26T14:41:13.732Z,2.60
2023-10-26T14:43:42.510Z,2.83
2023-10-26T14:46:15.948Z,2.40
2023-10-26T14:48:44.509Z,2.97
2023-10-26T14:51:15.618Z,2.13
2023-10-26T14:53:44.221Z,1.97
2023-10-26T14:56:13.304Z,1.50
2023-10-26T14:58:42.203Z,1.83
2023-10-26T15:01:15.621Z,1.98
2023-10-26T15:03:44.709Z,1.70
2023-10-26T15:06:13.790Z,1.90
2023-10-26T15:08:42.290Z,2.03
2023-10-26T15:11:22.755Z,2.08
2023-10-26T15:13:55.329Z,2.00
2023-10-26T15:16:27.539Z,2.47
2023-10-26T15:18:56.514Z,2.33
2023-10-26T15:21:25.397Z,2.50
2023-10-26T15:23:54.486Z,2.40
2023-10-26T15:26:23.425Z,2.67
2023-10-26T15:28:53.514Z,2.75
2023-10-26T15:31:22.531Z,2.78
2023-10-26T15:33:52.488Z,3.45
2023-10-26T15:36:21.522Z,3.05
2023-10-26T15:38:50.831Z,2.97
2023-10-26T15:41:19.720Z,3.42
2023-10-26T15:43:48.952Z,3.33
2023-10-26T15:46:17.758Z,3.20
2023-10-26T15:49:34.782Z,2.75
2023-10-26T15:51:38.830Z,2.88
2023-10-26T15:54:09.590Z,2.80
2023-10-26T15:56:40.632Z,2.92
2023-10-26T15:59:09.722Z,2.93
2023-10-26T16:01:37.977Z,2.95
2023-10-26T16:04:07.670Z,2.72
2023-10-26T16:06:37.484Z,2.85
2023-10-26T16:09:07.899Z,3.53
2023-10-26T16:11:36.478Z,3.33
2023-10-26T16:14:04.691Z,4.18
2023-10-26T16:16:33.122Z,4.50
2023-10-26T16:19:01.530Z,4.90
2023-10-26T16:21:30.599Z,5.22
2023-10-26T16:24:00.231Z,5.65
2023-10-26T16:26:28.830Z,5.18
2023-10-26T16:28:56.998Z,5.50
2023-10-26T16:31:26.354Z,6.15
2023-10-26T16:33:57.768Z,6.80
2023-10-26T16:36:27.143Z,6.95
2023-10-26T16:38:56.362Z,6.80
2023-10-26T16:41:26.382Z,7.32
2023-10-26T16:43:54.951Z,5.90
2023-10-26T16:46:24.511Z,6.50
2023-10-26T16:48:52.658Z,5.95
2023-10-26T16:51:20.868Z,6.18
2023-10-26T16:53:49.215Z,6.28
2023-10-26T16:56:18.268Z,6.40
2023-10-26T16:58:50.019Z,6.85
2023-10-26T17:01:18.383Z,6.05
2023-10-26T17:03:47.579Z,5.85
2023-10-26T17:06:16.540Z,6.13
2023-10-26T17:08:45.574Z,6.47
2023-10-26T17:11:14.537Z,5.53
2023-10-26T17:13:42.685Z,5.68
2023-10-26T17:16:13.110Z,6.45
2023-10-26T17:18:41.380Z,5.80
2023-10-26T17:21:09.787Z,5.40
2023-10-26T17:23:38.380Z,5.30
2023-10-26T17:26:06.857Z,4.68
2023-10-26T17:28:38.131Z,5.22
2023-10-26T17:31:07.377Z,5.03
2023-10-26T17:33:37.494Z,5.07
2023-10-26T17:36:06.698Z,6.82
2023-10-26T17:38:37.628Z,4.55
2023-10-26T17:41:09.668Z,4.00
2023-10-26T17:43:38.444Z,3.33
2023-10-26T17:46:09.513Z,3.50
2023-10-26T17:48:41.308Z,2.88
2023-10-26T17:51:10.576Z,2.78
2023-10-26T17:53:43.129Z,2.90
2023-10-26T17:56:14.439Z,2.50
2023-10-26T17:58:43.702Z,2.30
2023-10-26T18:01:13.674Z,2.15
2023-10-26T18:03:45.389Z,2.10
2023-10-26T18:06:15.111Z,2.22
2023-10-26T18:08:43.426Z,2.40
2023-10-26T18:11:13.542Z,1.98
2023-10-26T18:13:42.361Z,2.00
2023-10-26T18:16:12.107Z,2.05
2023-10-26T18:18:40.806Z,2.00
2023-10-26T18:21:12.272Z,2.00
2023-10-26T18:23:41.497Z,1.80
2023-10-26T18:26:12.834Z,2.30
2023-10-26T18:28:42.570Z,2.08
2023-10-26T18:31:17.550Z,2.10
2023-10-26T18:33:51.081Z,1.77
2023-10-26T18:36:23.155Z,2.00
2023-10-26T18:38:51.975Z,1.60
2023-10-26T18:41:21.865Z,1.73
2023-10-26T18:43:51.672Z,2.47
2023-10-26T18:46:21.201Z,2.22
2023-10-26T18:48:50.336Z,2.70
2023-10-26T18:51:19.148Z,2.40
2023-10-26T18:53:50.308Z,2.95
2023-10-26T18:56:23.185Z,2.40
2023-10-26T18:58:52.632Z,2.72
2023-10-26T19:01:25.330Z,2.58
2023-10-26T19:06:28.620Z,3.00
2023-10-26T19:09:02.545Z,2.42
2023-10-26T19:11:32.277Z,2.17
2023-10-26T19:14:01.526Z,2.30
2023-10-26T19:16:29.896Z,2.20
2023-10-26T19:18:59.216Z,1.98
2023-10-26T19:21:33.165Z,1.92
2023-10-26T19:24:05.202Z,2.25
2023-10-26T19:26:39.806Z,2.20
2023-10-26T19:29:08.675Z,2.00
2023-10-26T19:31:38.178Z,1.90
2023-10-26T19:34:07.441Z,2.20
2023-10-26T19:36:37.686Z,2.03
2023-10-26T19:39:10.543Z,1.95
2023-10-26T19:41:39.137Z,2.10
2023-10-26T19:44:08.755Z,2.17
2023-10-26T19:46:40.185Z,2.15
2023-10-26T19:49:09.226Z,1.98
2023-10-26T19:51:37.865Z,2.10
2023-10-26T19:54:07.515Z,1.98
2023-10-26T19:56:40.380Z,1.90
2023-10-26T19:59:08.574Z,2.30
2023-10-26T20:01:39.364Z,2.08
2023-10-26T20:04:08.606Z,2.60
2023-10-26T20:06:36.787Z,2.40
2023-10-26T20:09:06.468Z,2.63
2023-10-26T20:11:35.157Z,1.95
2023-10-26T20:14:05.402Z,2.53
2023-10-26T20:16:35.108Z,2.17
2023-10-26T20:19:04.077Z,2.60
2023-10-26T20:21:33.203Z,2.13
2023-10-26T20:24:02.439Z,2.30
2023-10-26T20:26:30.666Z,2.90
2023-10-26T20:29:01.014Z,2.78
2023-10-26T20:31:31.183Z,2.53
2023-10-26T20:34:00.643Z,2.83
2023-10-26T20:36:29.693Z,2.40
2023-10-26T20:39:01.520Z,2.47
2023-10-26T20:44:03.303Z,2.50
2023-10-26T20:46:34.959Z,2.72
2023-10-26T20:49:03.891Z,3.65
2023-10-26T20:51:34.769Z,2.50
2023-10-26T20:54:03.477Z,2.30
2023-10-26T20:56:32.654Z,2.50
2023-10-26T20:59:01.170Z,2.63
2023-10-26T21:01:29.835Z,2.63
2023-10-26T21:04:00.387Z,2.78
2023-10-26T21:06:49.607Z,2.90
2023-10-26T21:09:18.547Z,2.72
2023-10-26T21:11:47.070Z,2.53
2023-10-26T21:14:16.187Z,2.90
2023-10-26T21:16:44.892Z,2.92
2023-10-26T21:19:15.594Z,2.40
2023-10-26T21:21:44.013Z,2.63
2023-10-26T21:24:12.475Z,2.35
2023-10-26T21:26:40.689Z,2.33
2023-10-26T21:29:09.363Z,2.25
2023-10-26T21:31:39.500Z,2.40
2023-10-26T21:34:08.667Z,2.45
2023-10-26T21:36:40.443Z,2.03
2023-10-26T21:41:43.655Z,2.05
2023-10-26T21:44:13.196Z,2.22
2023-10-26T21:46:42.031Z,2.25
2023-10-26T21:49:10.508Z,2.50
2023-10-26T21:51:40.818Z,2.03
2023-10-26T21:54:13.419Z,2.40
2023-10-26T21:56:42.917Z,2.70
2023-10-26T21:59:15.950Z,2.40
2023-10-26T22:01:44.894Z,2.10
2023-10-26T22:04:22.200Z,2.72
2023-10-26T22:06:53.022Z,2.40
2023-10-26T22:09:23.540Z,2.77
2023-10-26T22:11:52.484Z,2.65
2023-10-26T22:14:21.855Z,2.10
2023-10-26T22:16:50.474Z,2.30
2023-10-26T22:19:21.847Z,2.58
2023-10-26T22:21:51.884Z,2.40
2023-10-26T22:24:21.367Z,2.30
2023-10-26T22:26:50.326Z,2.58
2023-10-26T22:29:29.440Z,2.80
2023-10-26T22:31:59.081Z,2.63
2023-10-26T22:34:27.473Z,2.50
2023-10-26T22:36:57.402Z,2.38
2023-10-26T22:39:25.762Z,2.33
2023-10-26T22:41:53.831Z,2.60
2023-10-26T22:44:22.219Z,2.38
2023-10-26T22:46:51.310Z,2.22
2023-10-26T22:49:20.150Z,2.30
2023-10-26T22:51:51.602Z,2.92
2023-10-26T22:54:23.778Z,2.33
2023-10-26T22:56:52.393Z,2.35
2023-10-26T22:59:21.796Z,2.72
2023-10-26T23:01:50.496Z,2.67
2023-10-26T23:04:19.457Z,2.38
2023-10-26T23:06:48.250Z,2.50
2023-10-26T23:09:17.523Z,2.67
2023-10-26T23:11:47.918Z,2.40
2023-10-26T23:14:16.154Z,2.70
2023-10-26T23:16:49.618Z,2.55
2023-10-26T23:19:19.678Z,2.28
2023-10-26T23:21:48.361Z,2.20
2023-10-26T23:24:20.814Z,3.13
2023-10-26T23:26:50.958Z,2.13
2023-10-26T23:29:20.091Z,2.63
2023-10-26T23:31:48.948Z,2.42
2023-10-26T23:34:17.477Z,1.95
2023-10-26T23:36:46.210Z,2.65
2023-10-26T23:39:14.724Z,2.47
2023-10-26T23:41:44.667Z,2.40
2023-10-26T23:44:14.220Z,2.72
2023-10-26T23:46:42.695Z,2.38
2023-10-26T23:49:11.414Z,2.45
2023-10-26T23:51:39.777Z,2.38
2023-10-26T23:54:09.864Z,2.45
2023-10-26T23:56:40.700Z,2.65
2023-10-26T23:59:11.583Z,2.70
